Terminal Aerodrome Forecast
Issued by NWS

Current Version | Previous Version | Text Only | Print | Product List | Glossary Off
Versions: 1 2 3 4 5 6 7 8 9 10 11 12 13 14 15 16 17 18 19 20 21 22 23

000
FTUS41 KILN 302333
TAFLUK
TAF
KLUK 302333Z 3100/3124 24004KT P6SM SCT045
     FM310200 VRB02KT P6SM SKC
     FM310400 00000KT 3SM BR SKC
     FM310800 00000KT 1SM BR SKC
      TEMPO 3110/3112 1/4SM FG BKN002
     FM311400 24004KT P6SM SCT035
     FM311900 26006KT P6SM SCT050=

USA.gov is the U.S. government's official web portal to all federal, state and local government web resources and services.